Time,TemperatureF,DewpointF,PressureIn,WindDirection,WindDirectionDegrees,WindSpeedMPH,WindSpeedGustMPH,Humidity,HourlyPrecipIn,Conditions,Clouds,dailyrainin,SoftwareType,DateUTC
2013-01-30 08:42:00,29.4,16.1,30.36,North,10,3.0,11.0,57,0.00,,,0.00,vanprod-2.3,2013-01-30 15:42:00,
2013-01-30 09:02:00,29.1,15.4,30.37,North,10,1.0,3.0,56,0.00,,,0.00,vanprod-2.3,2013-01-30 16:02:00,
2013-01-30 09:12:00,29.4,15.7,30.37,North,10,0.0,1.0,56,0.00,,,0.00,vanprod-2.3,2013-01-30 16:12:00,
2013-01-30 09:18:00,29.8,15.6,30.37,North,10,1.0,3.0,55,0.00,,,0.00,vanprod-2.3,2013-01-30 16:18:00,
2013-01-30 09:22:00,29.8,15.6,30.37,North,10,1.0,3.0,55,0.00,,,0.00,vanprod-2.3,2013-01-30 16:22:00,
2013-01-30 09:28:00,30.1,15.5,30.37,North,10,2.0,3.0,54,0.01,,,0.01,vanprod-2.3,2013-01-30 16:28:00,
2013-01-30 09:34:00,30.7,15.6,30.36,North,10,2.0,3.0,53,0.01,,,0.01,vanprod-2.3,2013-01-30 16:34:00,
2013-01-30 09:40:00,31.0,15.5,30.36,North,10,3.0,4.0,52,0.01,,,0.02,vanprod-2.3,2013-01-30 16:40:00,
2013-01-30 09:46:00,31.5,15.5,30.35,North,10,0.0,5.0,51,0.01,,,0.02,vanprod-2.3,2013-01-30 16:46:00,
2013-01-30 09:52:00,31.9,15.4,30.34,North,10,0.0,2.0,50,0.00,,,0.02,vanprod-2.3,2013-01-30 16:52:00,
2013-01-30 09:58:00,32.8,15.3,30.33,North,10,0.0,3.0,48,0.01,,,0.03,vanprod-2.3,2013-01-30 16:58:00,
2013-01-30 10:04:00,32.8,15.3,30.33,North,10,3.0,6.0,48,0.02,,,0.04,vanprod-2.3,2013-01-30 17:04:00,
2013-01-30 10:10:00,33.1,15.1,30.33,North,10,2.0,3.0,47,0.01,,,0.04,vanprod-2.3,2013-01-30 17:10:00,
2013-01-30 10:16:00,33.5,15.4,30.32,North,10,0.0,3.0,47,0.01,,,0.04,vanprod-2.3,2013-01-30 17:16:00,
2013-01-30 10:22:00,33.7,15.6,30.32,North,10,8.0,10.0,47,0.01,,,0.05,vanprod-2.3,2013-01-30 17:22:00,
2013-01-30 10:28:00,33.8,15.2,30.33,North,10,3.0,8.0,46,0.01,,,0.05,vanprod-2.3,2013-01-30 17:28:00,
2013-01-30 10:34:00,34.7,15.5,30.32,North,10,4.0,11.0,45,0.01,,,0.06,vanprod-2.3,2013-01-30 17:34:00,
2013-01-30 10:40:00,34.4,15.3,30.34,North,10,4.0,8.0,45,0.01,,,0.06,vanprod-2.3,2013-01-30 17:40:00,
2013-01-30 10:46:00,34.6,14.4,30.32,North,10,5.0,9.0,43,0.01,,,0.07,vanprod-2.3,2013-01-30 17:46:00,
2013-01-30 10:52:00,35.0,15.3,30.32,North,10,8.0,10.0,44,0.01,,,0.07,vanprod-2.3,2013-01-30 17:52:00,
2013-01-30 10:58:00,34.7,15.5,30.32,North,10,6.0,8.0,45,0.02,,,0.08,vanprod-2.3,2013-01-30 17:58:00,
2013-01-30 11:04:00,35.0,15.8,30.32,North,10,7.0,11.0,45,0.01,,,0.08,vanprod-2.3,2013-01-30 18:04:00,
2013-01-30 11:10:00,35.5,15.2,30.30,North,10,2.0,7.0,43,0.01,,,0.09,vanprod-2.3,2013-01-30 18:10:00,
2013-01-30 11:16:00,35.8,16.6,30.30,North,10,7.0,9.0,45,0.01,,,0.09,vanprod-2.3,2013-01-30 18:16:00,
2013-01-30 11:22:00,35.8,16.0,30.30,North,10,2.0,8.0,44,0.02,,,0.10,vanprod-2.3,2013-01-30 18:22:00,
2013-01-30 11:32:00,37.5,16.0,30.27,North,10,2.0,8.0,41,0.02,,,0.11,vanprod-2.3,2013-01-30 18:32:00,